Korbel, California
Current Conditions -  °F | °C
As of 8:53 AM on Saturday 22 Nov 2014 (Local Time) from KACV Reporting Station
Broken Clouds Broken Clouds  
Wind Chill: 58°   Ceiling: 2000
Heat Index: 58°   Visibility: 10mi
Dew Point: 55°   Wind: 9mph
Humidity: 90%   Direction: 280°W
Pressure: 30.07"   Gusts: NA
Location:  40.87°N, 123.96°W
Report Text: KACV 221653Z AUTO 28008KT 10SM SCT013 BKN020 BKN070 14/13 A3007 RMK AO2 SLP188 T01440128
Loading
Personal Weather Stations






























Interactive Weather Map New forecast layout! Learn more

10-Day Weather Forecast

Advertisements
Track Severe Weather on mobile